sensor_id;sensor_type;location;lat;lon;timestamp;P1;durP1;ratioP1;P2;durP2;ratioP2
23388;SDS011;11867;51.198;11.966;2024-01-10T00:00:40;63.05;;;28.17;;
23388;SDS011;11867;51.198;11.966;2024-01-10T00:02:03;63.75;;;26.55;;
23388;SDS011;11867;51.198;11.966;2024-01-10T00:03:25;62.53;;;28.05;;
23388;SDS011;11867;51.198;11.966;2024-01-10T00:04:48;64.57;;;28.48;;
23388;SDS011;11867;51.198;11.966;2024-01-10T00:06:10;61.13;;;28.30;;
23388;SDS011;11867;51.198;11.966;2024-01-10T00:07:33;65.03;;;27.92;;
23388;SDS011;11867;51.198;11.966;2024-01-10T00:08:57;64.63;;;28.20;;
23388;SDS011;11867;51.198;11.966;2024-01-10T00:10:22;60.05;;;27.83;;
23388;SDS011;11867;51.198;11.966;2024-01-10T00:11:44;60.38;;;27.33;;
23388;SDS011;11867;51.198;11.966;2024-01-10T00:13:07;55.63;;;26.67;;
23388;SDS011;11867;51.198;11.966;2024-01-10T00:14:29;62.67;;;26.52;;
23388;SDS011;11867;51.198;11.966;2024-01-10T00:15:52;65.68;;;28.60;;
23388;SDS011;11867;51.198;11.966;2024-01-10T00:17:14;61.95;;;26.83;;
23388;SDS011;11867;51.198;11.966;2024-01-10T00:18:37;69.50;;;27.77;;
23388;SDS011;11867;51.198;11.966;2024-01-10T00:19:59;62.08;;;27.67;;
23388;SDS011;11867;51.198;11.966;2024-01-10T00:21:22;61.72;;;27.63;;
23388;SDS011;11867;51.198;11.966;2024-01-10T00:22:44;63.65;;;28.08;;
23388;SDS011;11867;51.198;11.966;2024-01-10T00:24:07;59.22;;;28.95;;
23388;SDS011;11867;51.198;11.966;2024-01-10T00:25:30;60.83;;;27.27;;
23388;SDS011;11867;51.198;11.966;2024-01-10T00:26:53;64.07;;;27.55;;
23388;SDS011;11867;51.198;11.966;2024-01-10T00:28:15;68.57;;;28.27;;
23388;SDS011;11867;51.198;11.966;2024-01-10T00:29:39;61.30;;;26.35;;
23388;SDS011;11867;51.198;11.966;2024-01-10T00:31:01;64.45;;;28.45;;
23388;SDS011;11867;51.198;11.966;2024-01-10T00:32:27;68.03;;;27.23;;
23388;SDS011;11867;51.198;11.966;2024-01-10T00:33:49;61.17;;;27.33;;
23388;SDS011;11867;51.198;11.966;2024-01-10T00:35:12;62.30;;;26.85;;
23388;SDS011;11867;51.198;11.966;2024-01-10T00:36:34;62.67;;;26.77;;
23388;SDS011;11867;51.198;11.966;2024-01-10T00:37:57;57.38;;;26.33;;
23388;SDS011;11867;51.198;11.966;2024-01-10T00:39:19;58.47;;;26.23;;
23388;SDS011;11867;51.198;11.966;2024-01-10T00:40:43;62.90;;;25.15;;
23388;SDS011;11867;51.198;11.966;2024-01-10T00:42:05;56.80;;;26.67;;
23388;SDS011;11867;51.198;11.966;2024-01-10T00:43:28;63.63;;;26.77;;
23388;SDS011;11867;51.198;11.966;2024-01-10T00:44:50;62.40;;;28.15;;
23388;SDS011;11867;51.198;11.966;2024-01-10T00:46:13;52.50;;;26.05;;
23388;SDS011;11867;51.198;11.966;2024-01-10T00:47:35;66.43;;;28.55;;
23388;SDS011;11867;51.198;11.966;2024-01-10T00:48:58;56.58;;;25.45;;
23388;SDS011;11867;51.198;11.966;2024-01-10T00:50:20;59.78;;;26.40;;
23388;SDS011;11867;51.198;11.966;2024-01-10T00:51:43;57.60;;;27.30;;
23388;SDS011;11867;51.198;11.966;2024-01-10T00:53:05;66.47;;;27.30;;
23388;SDS011;11867;51.198;11.966;2024-01-10T00:54:29;63.25;;;27.73;;
23388;SDS011;11867;51.198;11.966;2024-01-10T00:55:52;58.22;;;26.65;;
23388;SDS011;11867;51.198;11.966;2024-01-10T00:57:15;57.67;;;27.08;;
23388;SDS011;11867;51.198;11.966;2024-01-10T00:58:37;61.17;;;27.10;;
23388;SDS011;11867;51.198;11.966;2024-01-10T01:00:00;62.97;;;26.77;;
23388;SDS011;11867;51.198;11.966;2024-01-10T01:01:22;59.90;;;26.08;;
23388;SDS011;11867;51.198;11.966;2024-01-10T01:02:45;63.25;;;26.55;;
23388;SDS011;11867;51.198;11.966;2024-01-10T01:04:07;57.30;;;26.92;;
23388;SDS011;11867;51.198;11.966;2024-01-10T01:05:29;58.00;;;26.77;;
23388;SDS011;11867;51.198;11.966;2024-01-10T01:06:52;56.45;;;27.10;;
23388;SDS011;11867;51.198;11.966;2024-01-10T01:08:15;63.53;;;27.20;;
23388;SDS011;11867;51.198;11.966;2024-01-10T01:09:37;59.92;;;27.05;;
23388;SDS011;11867;51.198;11.966;2024-01-10T01:11:01;61.47;;;27.63;;
23388;SDS011;11867;51.198;11.966;2024-01-10T01:12:23;66.25;;;27.35;;
23388;SDS011;11867;51.198;11.966;2024-01-10T01:13:46;58.55;;;26.63;;
23388;SDS011;11867;51.198;11.966;2024-01-10T01:15:08;57.22;;;27.13;;
23388;SDS011;11867;51.198;11.966;2024-01-10T01:16:31;63.53;;;26.25;;
23388;SDS011;11867;51.198;11.966;2024-01-10T01:17:54;64.13;;;28.27;;
23388;SDS011;11867;51.198;11.966;2024-01-10T01:19:16;59.88;;;26.80;;
23388;SDS011;11867;51.198;11.966;2024-01-10T01:20:39;54.40;;;25.38;;
23388;SDS011;11867;51.198;11.966;2024-01-10T01:22:01;62.88;;;26.73;;
23388;SDS011;11867;51.198;11.966;2024-01-10T01:23:23;59.90;;;26.52;;
23388;SDS011;11867;51.198;11.966;2024-01-10T01:24:59;61.45;;;27.10;;
23388;SDS011;11867;51.198;11.966;2024-01-10T01:26:23;67.30;;;25.92;;
23388;SDS011;11867;51.198;11.966;2024-01-10T01:27:45;60.33;;;26.42;;
23388;SDS011;11867;51.198;11.966;2024-01-10T01:29:08;60.17;;;26.40;;
23388;SDS011;11867;51.198;11.966;2024-01-10T01:30:30;61.70;;;27.15;;
23388;SDS011;11867;51.198;11.966;2024-01-10T01:31:53;64.80;;;27.00;;
23388;SDS011;11867;51.198;11.966;2024-01-10T01:33:15;60.03;;;25.95;;
23388;SDS011;11867;51.198;11.966;2024-01-10T01:34:39;59.00;;;26.17;;
23388;SDS011;11867;51.198;11.966;2024-01-10T01:36:01;59.67;;;27.50;;
23388;SDS011;11867;51.198;11.966;2024-01-10T01:37:23;54.47;;;26.67;;
23388;SDS011;11867;51.198;11.966;2024-01-10T01:38:45;57.47;;;26.67;;
23388;SDS011;11867;51.198;11.966;2024-01-10T01:40:09;63.97;;;27.42;;
23388;SDS011;11867;51.198;11.966;2024-01-10T01:41:32;65.85;;;28.35;;
23388;SDS011;11867;51.198;11.966;2024-01-10T01:42:55;62.38;;;26.58;;
23388;SDS011;11867;51.198;11.966;2024-01-10T01:44:17;61.33;;;26.98;;
23388;SDS011;11867;51.198;11.966;2024-01-10T01:45:40;62.03;;;27.20;;
23388;SDS011;11867;51.198;11.966;2024-01-10T01:47:02;60.88;;;26.83;;
23388;SDS011;11867;51.198;11.966;2024-01-10T01:48:25;64.97;;;26.55;;
23388;SDS011;11867;51.198;11.966;2024-01-10T01:49:48;63.90;;;26.70;;
23388;SDS011;11867;51.198;11.966;2024-01-10T01:51:11;65.00;;;26.75;;
23388;SDS011;11867;51.198;11.966;2024-01-10T01:52:36;58.95;;;25.25;;
23388;SDS011;11867;51.198;11.966;2024-01-10T01:53:59;62.22;;;27.90;;
23388;SDS011;11867;51.198;11.966;2024-01-10T01:55:22;57.97;;;25.35;;
23388;SDS011;11867;51.198;11.966;2024-01-10T01:56:47;52.28;;;25.52;;
23388;SDS011;11867;51.198;11.966;2024-01-10T01:58:10;55.88;;;26.55;;
23388;SDS011;11867;51.198;11.966;2024-01-10T01:59:34;60.50;;;26.95;;
23388;SDS011;11867;51.198;11.966;2024-01-10T02:00:55;61.42;;;26.88;;
23388;SDS011;11867;51.198;11.966;2024-01-10T02:02:19;69.40;;;27.80;;
23388;SDS011;11867;51.198;11.966;2024-01-10T02:03:43;55.35;;;27.02;;
23388;SDS011;11867;51.198;11.966;2024-01-10T02:05:06;57.88;;;25.33;;
23388;SDS011;11867;51.198;11.966;2024-01-10T02:06:30;64.97;;;28.30;;
23388;SDS011;11867;51.198;11.966;2024-01-10T02:07:52;58.28;;;27.13;;
23388;SDS011;11867;51.198;11.966;2024-01-10T02:09:16;66.15;;;27.23;;
23388;SDS011;11867;51.198;11.966;2024-01-10T02:10:39;55.40;;;25.70;;
23388;SDS011;11867;51.198;11.966;2024-01-10T02:12:04;65.00;;;28.33;;
23388;SDS011;11867;51.198;11.966;2024-01-10T02:13:28;61.85;;;27.55;;
23388;SDS011;11867;51.198;11.966;2024-01-10T02:14:50;58.55;;;25.50;;
23388;SDS011;11867;51.198;11.966;2024-01-10T02:16:14;67.15;;;27.77;;
23388;SDS011;11867;51.198;11.966;2024-01-10T02:17:36;58.22;;;26.17;;
23388;SDS011;11867;51.198;11.966;2024-01-10T02:18:59;60.50;;;27.08;;
23388;SDS011;11867;51.198;11.966;2024-01-10T02:20:22;56.80;;;26.05;;
23388;SDS011;11867;51.198;11.966;2024-01-10T02:21:45;59.28;;;26.77;;
23388;SDS011;11867;51.198;11.966;2024-01-10T02:23:07;62.53;;;27.33;;
23388;SDS011;11867;51.198;11.966;2024-01-10T02:24:30;62.53;;;26.20;;
23388;SDS011;11867;51.198;11.966;2024-01-10T02:25:54;67.88;;;26.85;;
23388;SDS011;11867;51.198;11.966;2024-01-10T02:27:17;59.75;;;26.23;;
23388;SDS011;11867;51.198;11.966;2024-01-10T02:28:39;60.17;;;26.85;;
23388;SDS011;11867;51.198;11.966;2024-01-10T02:30:02;56.13;;;25.90;;
23388;SDS011;11867;51.198;11.966;2024-01-10T02:31:26;64.10;;;27.90;;
23388;SDS011;11867;51.198;11.966;2024-01-10T02:32:49;59.10;;;26.23;;
23388;SDS011;11867;51.198;11.966;2024-01-10T02:34:11;63.00;;;26.30;;
23388;SDS011;11867;51.198;11.966;2024-01-10T02:35:34;62.20;;;28.58;;
23388;SDS011;11867;51.198;11.966;2024-01-10T02:36:56;60.45;;;26.90;;
23388;SDS011;11867;51.198;11.966;2024-01-10T02:38:19;54.92;;;25.08;;
23388;SDS011;11867;51.198;11.966;2024-01-10T02:39:45;62.75;;;26.98;;
23388;SDS011;11867;51.198;11.966;2024-01-10T02:41:09;57.95;;;25.95;;
23388;SDS011;11867;51.198;11.966;2024-01-10T02:42:31;55.72;;;27.30;;
23388;SDS011;11867;51.198;11.966;2024-01-10T02:43:54;58.45;;;25.70;;
23388;SDS011;11867;51.198;11.966;2024-01-10T02:45:20;57.85;;;27.65;;
23388;SDS011;11867;51.198;11.966;2024-01-10T02:46:43;61.88;;;26.95;;
23388;SDS011;11867;51.198;11.966;2024-01-10T02:48:05;63.03;;;26.65;;
23388;SDS011;11867;51.198;11.966;2024-01-10T02:49:28;59.83;;;26.38;;
23388;SDS011;11867;51.198;11.966;2024-01-10T02:50:50;54.40;;;24.23;;
23388;SDS011;11867;51.198;11.966;2024-01-10T02:52:13;63.75;;;26.90;;
23388;SDS011;11867;51.198;11.966;2024-01-10T02:53:35;63.50;;;25.55;;
23388;SDS011;11867;51.198;11.966;2024-01-10T02:54:58;62.53;;;26.05;;
23388;SDS011;11867;51.198;11.966;2024-01-10T02:56:21;65.70;;;27.17;;
23388;SDS011;11867;51.198;11.966;2024-01-10T02:57:44;61.00;;;27.30;;
23388;SDS011;11867;51.198;11.966;2024-01-10T02:59:06;64.70;;;26.90;;
23388;SDS011;11867;51.198;11.966;2024-01-10T03:00:29;68.70;;;26.90;;
23388;SDS011;11867;51.198;11.966;2024-01-10T03:01:51;61.72;;;25.63;;
23388;SDS011;11867;51.198;11.966;2024-01-10T03:03:14;61.40;;;27.15;;
23388;SDS011;11867;51.198;11.966;2024-01-10T03:04:36;60.33;;;28.10;;
23388;SDS011;11867;51.198;11.966;2024-01-10T03:05:59;64.90;;;26.92;;
23388;SDS011;11867;51.198;11.966;2024-01-10T03:07:21;61.80;;;26.60;;
23388;SDS011;11867;51.198;11.966;2024-01-10T03:08:46;64.90;;;28.23;;
23388;SDS011;11867;51.198;11.966;2024-01-10T03:10:08;60.38;;;26.63;;
23388;SDS011;11867;51.198;11.966;2024-01-10T03:11:33;64.50;;;28.05;;
23388;SDS011;11867;51.198;11.966;2024-01-10T03:12:56;63.63;;;27.02;;
23388;SDS011;11867;51.198;11.966;2024-01-10T03:14:19;63.80;;;26.40;;
23388;SDS011;11867;51.198;11.966;2024-01-10T03:15:41;60.05;;;27.48;;
23388;SDS011;11867;51.198;11.966;2024-01-10T03:17:04;66.68;;;28.10;;
23388;SDS011;11867;51.198;11.966;2024-01-10T03:18:32;66.28;;;28.10;;
23388;SDS011;11867;51.198;11.966;2024-01-10T03:19:55;64.60;;;27.75;;
23388;SDS011;11867;51.198;11.966;2024-01-10T03:21:17;62.92;;;26.27;;
23388;SDS011;11867;51.198;11.966;2024-01-10T03:22:44;58.90;;;26.40;;
23388;SDS011;11867;51.198;11.966;2024-01-10T03:24:07;60.72;;;27.65;;
23388;SDS011;11867;51.198;11.966;2024-01-10T03:25:30;64.82;;;27.13;;
23388;SDS011;11867;51.198;11.966;2024-01-10T03:26:54;60.67;;;26.60;;
23388;SDS011;11867;51.198;11.966;2024-01-10T03:28:17;67.45;;;28.35;;
23388;SDS011;11867;51.198;11.966;2024-01-10T03:29:39;57.72;;;26.55;;
23388;SDS011;11867;51.198;11.966;2024-01-10T03:31:02;66.72;;;26.20;;
23388;SDS011;11867;51.198;11.966;2024-01-10T03:32:24;65.22;;;27.50;;
23388;SDS011;11867;51.198;11.966;2024-01-10T03:33:47;62.38;;;27.13;;
23388;SDS011;11867;51.198;11.966;2024-01-10T03:35:11;62.70;;;26.38;;
23388;SDS011;11867;51.198;11.966;2024-01-10T03:36:34;61.35;;;26.45;;
23388;SDS011;11867;51.198;11.966;2024-01-10T03:37:56;65.85;;;28.60;;
23388;SDS011;11867;51.198;11.966;2024-01-10T03:39:19;65.15;;;27.48;;
23388;SDS011;11867;51.198;11.966;2024-01-10T03:40:42;65.95;;;27.52;;
23388;SDS011;11867;51.198;11.966;2024-01-10T03:42:06;56.55;;;27.63;;
23388;SDS011;11867;51.198;11.966;2024-01-10T03:43:28;64.65;;;28.17;;
23388;SDS011;11867;51.198;11.966;2024-01-10T03:44:52;64.18;;;29.38;;
23388;SDS011;11867;51.198;11.966;2024-01-10T03:46:15;70.60;;;28.30;;
23388;SDS011;11867;51.198;11.966;2024-01-10T03:47:38;73.32;;;27.75;;
23388;SDS011;11867;51.198;11.966;2024-01-10T03:49:00;63.05;;;27.23;;
23388;SDS011;11867;51.198;11.966;2024-01-10T03:50:23;67.10;;;27.15;;
23388;SDS011;11867;51.198;11.966;2024-01-10T03:51:45;63.15;;;27.20;;
23388;SDS011;11867;51.198;11.966;2024-01-10T03:53:08;63.25;;;27.55;;
23388;SDS011;11867;51.198;11.966;2024-01-10T03:54:30;67.75;;;27.83;;
23388;SDS011;11867;51.198;11.966;2024-01-10T03:55:55;70.93;;;28.02;;
23388;SDS011;11867;51.198;11.966;2024-01-10T03:57:18;66.10;;;27.73;;
23388;SDS011;11867;51.198;11.966;2024-01-10T03:58:41;71.57;;;27.88;;
23388;SDS011;11867;51.198;11.966;2024-01-10T04:00:03;68.45;;;28.05;;
23388;SDS011;11867;51.198;11.966;2024-01-10T04:01:28;62.00;;;27.67;;
23388;SDS011;11867;51.198;11.966;2024-01-10T04:02:50;61.05;;;27.27;;
23388;SDS011;11867;51.198;11.966;2024-01-10T04:04:13;65.35;;;27.40;;
23388;SDS011;11867;51.198;11.966;2024-01-10T04:05:35;65.47;;;28.90;;
23388;SDS011;11867;51.198;11.966;2024-01-10T04:06:58;75.28;;;30.23;;
23388;SDS011;11867;51.198;11.966;2024-01-10T04:08:20;73.25;;;31.23;;
23388;SDS011;11867;51.198;11.966;2024-01-10T04:09:43;76.78;;;31.35;;
23388;SDS011;11867;51.198;11.966;2024-01-10T04:11:07;75.75;;;31.23;;
23388;SDS011;11867;51.198;11.966;2024-01-10T04:12:32;74.60;;;30.55;;
23388;SDS011;11867;51.198;11.966;2024-01-10T04:13:54;78.32;;;32.13;;
23388;SDS011;11867;51.198;11.966;2024-01-10T04:15:17;70.72;;;30.65;;
23388;SDS011;11867;51.198;11.966;2024-01-10T04:16:39;78.00;;;30.85;;
23388;SDS011;11867;51.198;11.966;2024-01-10T04:18:02;72.25;;;29.38;;
23388;SDS011;11867;51.198;11.966;2024-01-10T04:19:24;70.97;;;30.80;;
23388;SDS011;11867;51.198;11.966;2024-01-10T04:20:47;74.15;;;29.67;;
23388;SDS011;11867;51.198;11.966;2024-01-10T04:22:11;74.45;;;30.42;;
23388;SDS011;11867;51.198;11.966;2024-01-10T04:23:33;78.57;;;31.67;;
23388;SDS011;11867;51.198;11.966;2024-01-10T04:24:56;77.20;;;31.17;;
23388;SDS011;11867;51.198;11.966;2024-01-10T04:26:20;79.10;;;32.28;;
23388;SDS011;11867;51.198;11.966;2024-01-10T04:27:43;75.43;;;30.80;;
23388;SDS011;11867;51.198;11.966;2024-01-10T04:29:06;76.30;;;32.30;;
23388;SDS011;11867;51.198;11.966;2024-01-10T04:30:29;81.65;;;31.67;;
23388;SDS011;11867;51.198;11.966;2024-01-10T04:31:51;73.68;;;31.23;;
23388;SDS011;11867;51.198;11.966;2024-01-10T04:33:13;72.80;;;29.33;;
23388;SDS011;11867;51.198;11.966;2024-01-10T04:34:37;69.80;;;28.42;;
23388;SDS011;11867;51.198;11.966;2024-01-10T04:35:59;76.63;;;30.00;;
23388;SDS011;11867;51.198;11.966;2024-01-10T04:37:21;76.20;;;31.17;;
23388;SDS011;11867;51.198;11.966;2024-01-10T04:38:44;65.85;;;28.70;;
23388;SDS011;11867;51.198;11.966;2024-01-10T04:40:07;73.47;;;29.60;;
23388;SDS011;11867;51.198;11.966;2024-01-10T04:41:30;77.18;;;31.27;;
23388;SDS011;11867;51.198;11.966;2024-01-10T04:42:53;66.05;;;29.02;;
23388;SDS011;11867;51.198;11.966;2024-01-10T04:44:16;73.00;;;31.15;;
23388;SDS011;11867;51.198;11.966;2024-01-10T04:45:38;74.70;;;29.55;;
23388;SDS011;11867;51.198;11.966;2024-01-10T04:47:01;68.32;;;29.75;;
23388;SDS011;11867;51.198;11.966;2024-01-10T04:48:26;76.93;;;30.48;;
23388;SDS011;11867;51.198;11.966;2024-01-10T04:49:49;74.00;;;30.60;;
23388;SDS011;11867;51.198;11.966;2024-01-10T04:51:11;72.68;;;31.10;;
23388;SDS011;11867;51.198;11.966;2024-01-10T04:52:34;71.25;;;30.17;;
23388;SDS011;11867;51.198;11.966;2024-01-10T04:53:56;66.03;;;30.45;;
23388;SDS011;11867;51.198;11.966;2024-01-10T04:55:19;73.72;;;29.90;;
23388;SDS011;11867;51.198;11.966;2024-01-10T04:56:41;71.22;;;29.45;;
23388;SDS011;11867;51.198;11.966;2024-01-10T04:58:05;77.50;;;30.15;;
23388;SDS011;11867;51.198;11.966;2024-01-10T04:59:27;72.50;;;29.40;;
23388;SDS011;11867;51.198;11.966;2024-01-10T05:00:50;70.75;;;30.58;;
23388;SDS011;11867;51.198;11.966;2024-01-10T05:02:12;70.85;;;29.98;;
23388;SDS011;11867;51.198;11.966;2024-01-10T05:03:35;68.95;;;28.80;;
23388;SDS011;11867;51.198;11.966;2024-01-10T05:04:57;70.43;;;30.05;;
23388;SDS011;11867;51.198;11.966;2024-01-10T05:06:21;71.30;;;28.58;;
23388;SDS011;11867;51.198;11.966;2024-01-10T05:07:43;77.07;;;31.75;;
23388;SDS011;11867;51.198;11.966;2024-01-10T05:09:06;73.88;;;29.73;;
23388;SDS011;11867;51.198;11.966;2024-01-10T05:10:30;69.65;;;30.60;;
23388;SDS011;11867;51.198;11.966;2024-01-10T05:11:53;77.22;;;32.45;;
23388;SDS011;11867;51.198;11.966;2024-01-10T05:13:17;71.88;;;31.08;;
23388;SDS011;11867;51.198;11.966;2024-01-10T05:14:40;70.72;;;31.50;;
23388;SDS011;11867;51.198;11.966;2024-01-10T05:16:02;72.93;;;29.90;;
23388;SDS011;11867;51.198;11.966;2024-01-10T05:17:25;71.40;;;31.20;;
23388;SDS011;11867;51.198;11.966;2024-01-10T05:18:47;69.15;;;30.20;;
23388;SDS011;11867;51.198;11.966;2024-01-10T05:20:10;67.50;;;29.80;;
23388;SDS011;11867;51.198;11.966;2024-01-10T05:21:32;69.20;;;30.17;;
23388;SDS011;11867;51.198;11.966;2024-01-10T05:22:56;69.75;;;29.48;;
23388;SDS011;11867;51.198;11.966;2024-01-10T05:24:20;67.18;;;29.23;;
23388;SDS011;11867;51.198;11.966;2024-01-10T05:25:43;65.10;;;28.83;;
23388;SDS011;11867;51.198;11.966;2024-01-10T05:27:05;67.68;;;29.50;;
23388;SDS011;11867;51.198;11.966;2024-01-10T05:28:29;75.20;;;30.15;;
23388;SDS011;11867;51.198;11.966;2024-01-10T05:29:51;65.88;;;30.30;;
23388;SDS011;11867;51.198;11.966;2024-01-10T05:31:14;72.35;;;29.55;;
23388;SDS011;11867;51.198;11.966;2024-01-10T05:32:36;73.45;;;29.58;;
23388;SDS011;11867;51.198;11.966;2024-01-10T05:33:59;68.90;;;29.55;;
23388;SDS011;11867;51.198;11.966;2024-01-10T05:35:21;65.47;;;29.90;;
23388;SDS011;11867;51.198;11.966;2024-01-10T05:36:44;70.28;;;29.85;;
23388;SDS011;11867;51.198;11.966;2024-01-10T05:38:06;68.97;;;29.67;;
23388;SDS011;11867;51.198;11.966;2024-01-10T05:39:29;74.18;;;29.70;;
23388;SDS011;11867;51.198;11.966;2024-01-10T05:40:52;74.55;;;29.45;;
23388;SDS011;11867;51.198;11.966;2024-01-10T05:42:17;68.43;;;29.50;;
23388;SDS011;11867;51.198;11.966;2024-01-10T05:43:42;72.97;;;29.42;;
23388;SDS011;11867;51.198;11.966;2024-01-10T05:45:06;67.85;;;29.25;;
23388;SDS011;11867;51.198;11.966;2024-01-10T05:46:28;68.07;;;28.45;;
23388;SDS011;11867;51.198;11.966;2024-01-10T05:47:52;72.25;;;29.85;;
23388;SDS011;11867;51.198;11.966;2024-01-10T05:49:14;69.90;;;30.30;;
23388;SDS011;11867;51.198;11.966;2024-01-10T05:50:37;67.53;;;29.67;;
23388;SDS011;11867;51.198;11.966;2024-01-10T05:52:00;70.72;;;30.42;;
23388;SDS011;11867;51.198;11.966;2024-01-10T05:53:23;64.10;;;29.05;;
23388;SDS011;11867;51.198;11.966;2024-01-10T05:54:46;73.35;;;29.30;;
23388;SDS011;11867;51.198;11.966;2024-01-10T05:56:09;68.63;;;29.92;;
23388;SDS011;11867;51.198;11.966;2024-01-10T05:57:31;59.13;;;29.17;;
23388;SDS011;11867;51.198;11.966;2024-01-10T05:58:56;64.68;;;28.15;;
23388;SDS011;11867;51.198;11.966;2024-01-10T06:00:18;69.78;;;30.48;;
23388;SDS011;11867;51.198;11.966;2024-01-10T06:01:43;63.90;;;29.10;;
23388;SDS011;11867;51.198;11.966;2024-01-10T06:03:05;70.18;;;29.42;;
23388;SDS011;11867;51.198;11.966;2024-01-10T06:04:29;66.10;;;28.83;;
23388;SDS011;11867;51.198;11.966;2024-01-10T06:05:53;63.80;;;29.50;;
23388;SDS011;11867;51.198;11.966;2024-01-10T06:07:16;68.70;;;29.58;;
23388;SDS011;11867;51.198;11.966;2024-01-10T06:08:38;65.20;;;30.90;;
23388;SDS011;11867;51.198;11.966;2024-01-10T06:10:00;71.03;;;28.42;;
23388;SDS011;11867;51.198;11.966;2024-01-10T06:11:22;68.18;;;30.15;;
23388;SDS011;11867;51.198;11.966;2024-01-10T06:12:46;75.20;;;30.52;;
23388;SDS011;11867;51.198;11.966;2024-01-10T06:14:09;72.47;;;31.08;;
23388;SDS011;11867;51.198;11.966;2024-01-10T06:15:32;66.88;;;29.27;;
23388;SDS011;11867;51.198;11.966;2024-01-10T06:16:54;68.07;;;30.25;;
23388;SDS011;11867;51.198;11.966;2024-01-10T06:18:17;69.63;;;30.70;;
23388;SDS011;11867;51.198;11.966;2024-01-10T06:19:39;67.60;;;30.30;;
23388;SDS011;11867;51.198;11.966;2024-01-10T06:21:02;62.70;;;28.48;;
23388;SDS011;11867;51.198;11.966;2024-01-10T06:22:25;64.35;;;28.45;;
23388;SDS011;11867;51.198;11.966;2024-01-10T06:23:51;67.47;;;29.95;;
23388;SDS011;11867;51.198;11.966;2024-01-10T06:25:13;69.22;;;29.20;;
23388;SDS011;11867;51.198;11.966;2024-01-10T06:26:36;61.83;;;28.08;;
23388;SDS011;11867;51.198;11.966;2024-01-10T06:28:00;65.60;;;29.25;;
23388;SDS011;11867;51.198;11.966;2024-01-10T06:29:24;71.00;;;29.92;;
23388;SDS011;11867;51.198;11.966;2024-01-10T06:30:46;74.15;;;31.13;;
23388;SDS011;11867;51.198;11.966;2024-01-10T06:32:10;68.45;;;30.95;;
23388;SDS011;11867;51.198;11.966;2024-01-10T06:33:32;67.72;;;28.85;;
23388;SDS011;11867;51.198;11.966;2024-01-10T06:34:55;71.35;;;29.08;;
23388;SDS011;11867;51.198;11.966;2024-01-10T06:36:17;74.90;;;31.15;;
23388;SDS011;11867;51.198;11.966;2024-01-10T06:37:40;68.45;;;30.20;;
23388;SDS011;11867;51.198;11.966;2024-01-10T06:39:02;73.00;;;29.85;;
23388;SDS011;11867;51.198;11.966;2024-01-10T06:40:26;75.75;;;32.08;;
23388;SDS011;11867;51.198;11.966;2024-01-10T06:41:48;68.70;;;28.73;;
23388;SDS011;11867;51.198;11.966;2024-01-10T06:43:14;72.43;;;29.30;;
23388;SDS011;11867;51.198;11.966;2024-01-10T06:44:37;67.38;;;30.23;;
23388;SDS011;11867;51.198;11.966;2024-01-10T06:46:00;78.82;;;31.27;;
23388;SDS011;11867;51.198;11.966;2024-01-10T06:47:24;65.25;;;29.30;;
23388;SDS011;11867;51.198;11.966;2024-01-10T06:48:47;72.80;;;30.65;;
23388;SDS011;11867;51.198;11.966;2024-01-10T06:50:09;71.60;;;30.85;;
23388;SDS011;11867;51.198;11.966;2024-01-10T06:51:33;68.88;;;29.95;;
23388;SDS011;11867;51.198;11.966;2024-01-10T06:52:55;73.13;;;31.33;;
23388;SDS011;11867;51.198;11.966;2024-01-10T06:54:18;68.88;;;31.80;;
23388;SDS011;11867;51.198;11.966;2024-01-10T06:55:40;78.25;;;32.50;;
23388;SDS011;11867;51.198;11.966;2024-01-10T06:57:04;76.00;;;32.30;;
23388;SDS011;11867;51.198;11.966;2024-01-10T06:58:26;76.15;;;31.95;;
23388;SDS011;11867;51.198;11.966;2024-01-10T06:59:50;73.22;;;32.00;;
23388;SDS011;11867;51.198;11.966;2024-01-10T07:01:12;70.38;;;31.15;;
23388;SDS011;11867;51.198;11.966;2024-01-10T07:02:36;73.25;;;31.40;;
23388;SDS011;11867;51.198;11.966;2024-01-10T07:03:58;71.35;;;32.60;;
23388;SDS011;11867;51.198;11.966;2024-01-10T07:05:21;72.38;;;31.33;;
23388;SDS011;11867;51.198;11.966;2024-01-10T07:06:43;79.80;;;32.65;;
23388;SDS011;11867;51.198;11.966;2024-01-10T07:08:06;73.70;;;31.10;;
23388;SDS011;11867;51.198;11.966;2024-01-10T07:09:28;69.18;;;31.85;;
23388;SDS011;11867;51.198;11.966;2024-01-10T07:10:51;74.25;;;32.92;;
23388;SDS011;11867;51.198;11.966;2024-01-10T07:12:17;74.35;;;31.40;;
23388;SDS011;11867;51.198;11.966;2024-01-10T07:13:39;71.25;;;31.38;;
23388;SDS011;11867;51.198;11.966;2024-01-10T07:15:04;75.47;;;33.42;;
23388;SDS011;11867;51.198;11.966;2024-01-10T07:16:27;73.88;;;32.95;;
23388;SDS011;11867;51.198;11.966;2024-01-10T07:17:50;77.07;;;32.47;;
23388;SDS011;11867;51.198;11.966;2024-01-10T07:19:12;78.78;;;33.15;;
23388;SDS011;11867;51.198;11.966;2024-01-10T07:20:35;77.63;;;32.08;;
23388;SDS011;11867;51.198;11.966;2024-01-10T07:21:59;77.50;;;32.92;;
23388;SDS011;11867;51.198;11.966;2024-01-10T07:23:22;69.60;;;30.98;;
23388;SDS011;11867;51.198;11.966;2024-01-10T07:24:44;77.65;;;30.65;;
23388;SDS011;11867;51.198;11.966;2024-01-10T07:26:08;77.20;;;33.80;;
23388;SDS011;11867;51.198;11.966;2024-01-10T07:27:30;78.68;;;32.60;;
23388;SDS011;11867;51.198;11.966;2024-01-10T07:28:52;77.07;;;32.38;;
23388;SDS011;11867;51.198;11.966;2024-01-10T07:30:16;80.15;;;32.90;;
23388;SDS011;11867;51.198;11.966;2024-01-10T07:31:39;81.95;;;34.67;;
23388;SDS011;11867;51.198;11.966;2024-01-10T07:33:02;77.70;;;31.30;;
23388;SDS011;11867;51.198;11.966;2024-01-10T07:34:25;80.35;;;33.58;;
23388;SDS011;11867;51.198;11.966;2024-01-10T07:35:47;85.50;;;35.00;;
23388;SDS011;11867;51.198;11.966;2024-01-10T07:37:10;93.50;;;36.63;;
23388;SDS011;11867;51.198;11.966;2024-01-10T07:38:33;87.93;;;35.47;;
23388;SDS011;11867;51.198;11.966;2024-01-10T07:39:56;97.22;;;36.45;;
23388;SDS011;11867;51.198;11.966;2024-01-10T07:41:19;95.22;;;38.35;;
23388;SDS011;11867;51.198;11.966;2024-01-10T07:42:42;98.80;;;38.25;;
23388;SDS011;11867;51.198;11.966;2024-01-10T07:44:04;104.03;;;40.00;;
23388;SDS011;11867;51.198;11.966;2024-01-10T07:45:28;92.60;;;39.38;;
23388;SDS011;11867;51.198;11.966;2024-01-10T07:46:50;103.35;;;39.50;;
23388;SDS011;11867;51.198;11.966;2024-01-10T07:48:15;98.75;;;40.10;;
23388;SDS011;11867;51.198;11.966;2024-01-10T07:49:37;96.00;;;39.33;;
23388;SDS011;11867;51.198;11.966;2024-01-10T07:51:00;96.25;;;37.70;;
23388;SDS011;11867;51.198;11.966;2024-01-10T07:52:22;96.40;;;36.75;;
23388;SDS011;11867;51.198;11.966;2024-01-10T07:53:46;87.85;;;36.97;;
23388;SDS011;11867;51.198;11.966;2024-01-10T07:55:08;91.85;;;36.80;;
23388;SDS011;11867;51.198;11.966;2024-01-10T07:56:32;85.00;;;35.65;;
23388;SDS011;11867;51.198;11.966;2024-01-10T07:57:54;90.80;;;36.00;;